Time;durP1;ratioP1;P1;durP2;ratioP2;P2;SDS_P1;SDS_P2;PMS_P1;PMS_P2;Temp;Humidity;BMP_temperature;BMP_pressure;BME280_temperature;BME280_humidity;BME280_pressure;Samples;Min_cycle;Max_cycle;Signal;HPM_P1;HPM_P2
2023/08/20 00:00:41;;;;;;;3.45;3.15;;;;;;;;;;5055154;28;20206;-86
2023/08/20 00:03:11;;;;;;;4.28;3.00;;;;;;;;;;5055249;28;20197;-83
2023/08/20 00:05:45;;;;;;;3.53;3.30;;;;;;;;;;5055896;28;20199;-84
2023/08/20 00:08:19;;;;;;;3.97;2.70;;;;;;;;;;5055875;28;20329;-83
2023/08/20 00:10:48;;;;;;;3.00;2.65;;;;;;;;;;5057659;28;20346;-83
2023/08/20 00:13:18;;;;;;;4.03;3.28;;;;;;;;;;5059895;28;20203;-83
2023/08/20 00:15:49;;;;;;;2.50;2.40;;;;;;;;;;5059300;28;20250;-84
2023/08/20 00:18:19;;;;;;;2.70;2.50;;;;;;;;;;5054205;28;20226;-84
2023/08/20 00:20:49;;;;;;;2.88;2.67;;;;;;;;;;5054133;28;20195;-85
2023/08/20 00:23:30;;;;;;;3.10;2.90;;;;;;;;;;5054612;28;20653;-84
2023/08/20 00:26:07;;;;;;;3.45;3.15;;;;;;;;;;5054515;28;20239;-84
2023/08/20 00:28:38;;;;;;;2.88;2.67;;;;;;;;;;5054654;28;20663;-84
2023/08/20 00:31:09;;;;;;;5.10;3.25;;;;;;;;;;5053967;28;20698;-84
2023/08/20 00:33:47;;;;;;;3.22;2.92;;;;;;;;;;5054028;28;20202;-84
2023/08/20 00:36:18;;;;;;;9.55;2.70;;;;;;;;;;5053951;28;20199;-84
2023/08/20 00:38:49;;;;;;;3.25;2.90;;;;;;;;;;5053994;28;20636;-83
2023/08/20 00:41:20;;;;;;;2.83;2.63;;;;;;;;;;5053549;28;20253;-85
2023/08/20 00:43:49;;;;;;;7.82;3.25;;;;;;;;;;5054292;28;20260;-84
2023/08/20 00:46:18;;;;;;;3.85;3.55;;;;;;;;;;5053206;28;20239;-84
2023/08/20 00:48:51;;;;;;;2.83;2.63;;;;;;;;;;5053955;28;20518;-84
2023/08/20 00:51:23;;;;;;;3.05;2.85;;;;;;;;;;5053571;28;20645;-84
2023/08/20 00:53:56;;;;;;;2.92;2.58;;;;;;;;;;5053555;28;20203;-84
2023/08/20 00:56:24;;;;;;;5.50;3.45;;;;;;;;;;5053597;28;20236;-84
2023/08/20 00:58:54;;;;;;;3.88;3.55;;;;;;;;;;5054367;28;20271;-84
2023/08/20 01:01:27;;;;;;;3.25;3.00;;;;;;;;;;5053213;28;20206;-83
2023/08/20 01:03:58;;;;;;;3.25;3.05;;;;;;;;;;5054397;28;20202;-83
2023/08/20 01:06:34;;;;;;;3.50;3.20;;;;;;;;;;5053185;28;20207;-84
2023/08/20 01:09:06;;;;;;;3.47;3.28;;;;;;;;;;5054169;28;20235;-82
2023/08/20 01:11:38;;;;;;;2.67;2.58;;;;;;;;;;5064405;28;20696;-84
2023/08/20 01:14:23;;;;;;;3.58;2.85;;;;;;;;;;5073559;28;20198;-84
2023/08/20 01:16:57;;;;;;;3.20;2.90;;;;;;;;;;5073282;28;20210;-85
2023/08/20 01:19:26;;;;;;;3.22;3.03;;;;;;;;;;5076742;28;20206;-85
2023/08/20 01:22:04;;;;;;;4.00;3.45;;;;;;;;;;5071094;28;20678;-83
2023/08/20 01:24:40;;;;;;;4.63;2.90;;;;;;;;;;5053485;28;20224;-83
2023/08/20 01:27:11;;;;;;;3.05;2.85;;;;;;;;;;5054485;28;20308;-83
2023/08/20 01:29:41;;;;;;;4.45;3.67;;;;;;;;;;5053490;28;20571;-84
2023/08/20 01:32:11;;;;;;;2.70;2.50;;;;;;;;;;5052305;28;20217;-81
2023/08/20 01:34:41;;;;;;;3.70;3.40;;;;;;;;;;5052916;28;20283;-84
2023/08/20 01:37:09;;;;;;;4.63;4.18;;;;;;;;;;5052833;28;20586;-83
2023/08/20 01:39:39;;;;;;;4.07;3.78;;;;;;;;;;5054003;28;20214;-84
2023/08/20 01:42:08;;;;;;;3.97;3.67;;;;;;;;;;5052983;28;20653;-83
2023/08/20 01:44:39;;;;;;;3.75;3.55;;;;;;;;;;5053307;28;20272;-83
2023/08/20 01:47:10;;;;;;;3.85;3.55;;;;;;;;;;5053938;28;20201;-84
2023/08/20 01:49:39;;;;;;;4.05;3.75;;;;;;;;;;5053638;28;20219;-84
2023/08/20 01:52:07;;;;;;;4.22;3.78;;;;;;;;;;5054009;28;20210;-83
2023/08/20 01:54:36;;;;;;;4.80;4.30;;;;;;;;;;5054325;28;20258;-84
2023/08/20 01:57:07;;;;;;;5.45;4.18;;;;;;;;;;5052574;28;20520;-85
2023/08/20 01:59:38;;;;;;;4.32;3.85;;;;;;;;;;5053453;28;20238;-84
2023/08/20 02:02:10;;;;;;;4.47;4.07;;;;;;;;;;5052562;28;20184;-84
2023/08/20 02:04:40;;;;;;;4.28;3.88;;;;;;;;;;5052739;28;20191;-83
2023/08/20 02:07:08;;;;;;;9.98;3.60;;;;;;;;;;5053694;28;20553;-83
2023/08/20 02:09:39;;;;;;;3.83;3.55;;;;;;;;;;5067939;28;20307;-84
2023/08/20 02:12:07;;;;;;;4.97;4.28;;;;;;;;;;5058545;28;20517;-83
2023/08/20 02:14:35;;;;;;;4.10;3.78;;;;;;;;;;5053891;28;20199;-84
2023/08/20 02:17:04;;;;;;;3.50;3.13;;;;;;;;;;5053497;28;20269;-84
2023/08/20 02:19:34;;;;;;;4.38;3.97;;;;;;;;;;5052957;28;20249;-87
2023/08/20 02:22:07;;;;;;;3.92;3.40;;;;;;;;;;5056697;28;20222;-84
2023/08/20 02:24:37;;;;;;;4.22;3.92;;;;;;;;;;5057567;28;20191;-84
2023/08/20 02:27:09;;;;;;;3.55;3.35;;;;;;;;;;5054163;28;20206;-84
2023/08/20 02:29:39;;;;;;;3.88;3.67;;;;;;;;;;5052533;28;20234;-85
2023/08/20 02:32:09;;;;;;;3.95;3.65;;;;;;;;;;5052630;28;20249;-84
2023/08/20 02:34:43;;;;;;;4.30;3.85;;;;;;;;;;5052223;28;20199;-84
2023/08/20 02:37:13;;;;;;;3.80;3.50;;;;;;;;;;5051097;28;20667;-84
2023/08/20 02:39:43;;;;;;;3.47;3.17;;;;;;;;;;5051031;28;20190;-84
2023/08/20 02:42:13;;;;;;;4.07;3.67;;;;;;;;;;5051571;28;20203;-84
2023/08/20 02:44:41;;;;;;;10.77;5.47;;;;;;;;;;5051616;28;20456;-84
2023/08/20 02:47:11;;;;;;;10.60;6.97;;;;;;;;;;5052034;28;20205;-84
2023/08/20 02:49:39;;;;;;;4.50;3.90;;;;;;;;;;5052319;28;20239;-86
2023/08/20 02:52:09;;;;;;;3.95;3.58;;;;;;;;;;5051614;28;20253;-84
2023/08/20 02:54:40;;;;;;;4.55;4.18;;;;;;;;;;5052547;28;20251;-85
2023/08/20 02:57:10;;;;;;;3.90;3.60;;;;;;;;;;5052137;28;20223;-84
2023/08/20 02:59:40;;;;;;;3.95;3.65;;;;;;;;;;5051885;28;20370;-83
2023/08/20 03:02:10;;;;;;;4.72;3.70;;;;;;;;;;5051999;28;20210;-84
2023/08/20 03:04:39;;;;;;;3.55;3.22;;;;;;;;;;5051248;28;20203;-84
2023/08/20 03:07:11;;;;;;;3.60;2.97;;;;;;;;;;5051280;28;20206;-83
2023/08/20 03:09:41;;;;;;;5.03;3.78;;;;;;;;;;5051372;28;20234;-84
2023/08/20 03:12:11;;;;;;;4.03;3.72;;;;;;;;;;5050958;28;20194;-83
2023/08/20 03:14:39;;;;;;;3.47;3.08;;;;;;;;;;5051206;28;20201;-84
2023/08/20 03:17:09;;;;;;;7.28;4.80;;;;;;;;;;5051457;28;20260;-84
2023/08/20 03:20:05;;;;;;;5.18;3.92;;;;;;;;;;5051499;28;20260;-85
2023/08/20 03:22:35;;;;;;;6.40;4.15;;;;;;;;;;5050844;28;20193;-86
2023/08/20 03:25:06;;;;;;;4.47;3.30;;;;;;;;;;5051568;28;20213;-83
2023/08/20 03:27:37;;;;;;;3.55;3.35;;;;;;;;;;5052574;28;20613;-84
2023/08/20 03:30:06;;;;;;;5.40;4.35;;;;;;;;;;5055126;28;20209;-84
2023/08/20 03:32:35;;;;;;;4.30;3.53;;;;;;;;;;5055558;28;20201;-84
2023/08/20 03:35:04;;;;;;;4.70;3.90;;;;;;;;;;5056440;28;20703;-86
2023/08/20 03:37:35;;;;;;;3.42;3.22;;;;;;;;;;5055308;28;20256;-83
2023/08/20 03:40:06;;;;;;;4.20;3.78;;;;;;;;;;5055642;28;20256;-83
2023/08/20 03:42:35;;;;;;;4.95;4.00;;;;;;;;;;5054588;28;20226;-83
2023/08/20 03:45:03;;;;;;;5.80;4.32;;;;;;;;;;5055357;28;20238;-85
2023/08/20 03:47:34;;;;;;;4.95;4.00;;;;;;;;;;5055735;28;20235;-84
2023/08/20 03:50:02;;;;;;;5.03;3.35;;;;;;;;;;5055221;28;20209;-83
2023/08/20 03:52:32;;;;;;;7.15;4.28;;;;;;;;;;5053903;28;20320;-83
2023/08/20 03:55:00;;;;;;;6.55;3.90;;;;;;;;;;5054583;28;20211;-85
2023/08/20 03:57:31;;;;;;;4.40;4.03;;;;;;;;;;5054780;28;20257;-84
2023/08/20 04:00:02;;;;;;;11.60;3.60;;;;;;;;;;5055137;28;20222;-83
2023/08/20 04:02:32;;;;;;;5.70;4.57;;;;;;;;;;5054528;28;20199;-83
2023/08/20 04:05:01;;;;;;;4.43;4.03;;;;;;;;;;5055916;28;20199;-84
2023/08/20 04:07:31;;;;;;;4.55;4.03;;;;;;;;;;5055194;28;20199;-84
2023/08/20 04:10:00;;;;;;;3.65;3.17;;;;;;;;;;5055582;28;20236;-84
2023/08/20 04:12:30;;;;;;;5.78;3.63;;;;;;;;;;5055026;28;20602;-83
2023/08/20 04:14:58;;;;;;;6.82;4.35;;;;;;;;;;5054824;28;20204;-85
2023/08/20 04:17:30;;;;;;;4.32;4.03;;;;;;;;;;5054369;28;20204;-85
2023/08/20 04:19:59;;;;;;;5.15;3.75;;;;;;;;;;5055275;28;20200;-83
2023/08/20 04:22:31;;;;;;;4.97;4.47;;;;;;;;;;5054251;28;20220;-83
2023/08/20 04:25:02;;;;;;;4.32;3.92;;;;;;;;;;5054061;28;20203;-84
2023/08/20 04:27:33;;;;;;;8.93;4.15;;;;;;;;;;5054002;28;20662;-85
2023/08/20 04:30:04;;;;;;;5.68;4.30;;;;;;;;;;5054399;28;20250;-83
2023/08/20 04:32:36;;;;;;;4.15;3.72;;;;;;;;;;5054488;28;20215;-84
2023/08/20 04:35:09;;;;;;;6.88;5.93;;;;;;;;;;5055075;28;20191;-84
2023/08/20 04:37:42;;;;;;;4.13;3.83;;;;;;;;;;5054590;28;20784;-84
2023/08/20 04:40:18;;;;;;;4.80;4.40;;;;;;;;;;5054347;28;20280;-84
2023/08/20 04:42:50;;;;;;;5.43;4.35;;;;;;;;;;5054033;28;20256;-85
2023/08/20 04:45:25;;;;;;;4.35;4.05;;;;;;;;;;5053931;28;20235;-84
2023/08/20 04:47:56;;;;;;;4.15;3.95;;;;;;;;;;5054443;28;20202;-85
2023/08/20 04:50:25;;;;;;;4.40;4.10;;;;;;;;;;5054287;28;20676;-86
2023/08/20 04:52:58;;;;;;;4.22;3.90;;;;;;;;;;5054876;28;20623;-85
2023/08/20 04:55:27;;;;;;;4.03;3.83;;;;;;;;;;5054754;28;20200;-85
2023/08/20 04:57:57;;;;;;;3.65;3.45;;;;;;;;;;5061280;28;20196;-84
2023/08/20 05:00:28;;;;;;;4.07;3.72;;;;;;;;;;5073555;28;20195;-85
2023/08/20 05:02:58;;;;;;;4.35;3.88;;;;;;;;;;5074836;28;20667;-84
2023/08/20 05:05:27;;;;;;;7.25;4.40;;;;;;;;;;5070888;28;20263;-85
2023/08/20 05:07:58;;;;;;;4.65;4.25;;;;;;;;;;5074450;28;20195;-84
2023/08/20 05:10:29;;;;;;;5.90;4.30;;;;;;;;;;5059076;28;20243;-86
2023/08/20 05:12:59;;;;;;;4.70;4.13;;;;;;;;;;5057023;28;20191;-84
2023/08/20 05:15:28;;;;;;;13.05;4.40;;;;;;;;;;5053485;28;20270;-84
2023/08/20 05:17:55;;;;;;;5.20;4.18;;;;;;;;;;5053526;28;20291;-84
2023/08/20 05:20:25;;;;;;;4.72;3.88;;;;;;;;;;5053104;28;20242;-85
2023/08/20 05:22:54;;;;;;;4.75;4.35;;;;;;;;;;5052897;28;20195;-85
2023/08/20 05:25:22;;;;;;;4.72;4.40;;;;;;;;;;5052617;28;20291;-84
2023/08/20 05:27:53;;;;;;;5.13;4.72;;;;;;;;;;5052531;28;20210;-84
2023/08/20 05:30:23;;;;;;;5.05;4.75;;;;;;;;;;5052694;28;20280;-86
2023/08/20 05:32:52;;;;;;;4.55;4.25;;;;;;;;;;5052414;28;20586;-86
2023/08/20 05:35:20;;;;;;;5.18;4.70;;;;;;;;;;5052110;28;20202;-84
2023/08/20 05:37:50;;;;;;;5.07;4.72;;;;;;;;;;5051844;28;20202;-83
2023/08/20 05:40:20;;;;;;;4.57;4.28;;;;;;;;;;5052119;28;20273;-85
2023/08/20 05:42:48;;;;;;;6.28;4.68;;;;;;;;;;5052409;28;20679;-84
2023/08/20 05:45:16;;;;;;;4.60;4.25;;;;;;;;;;5051808;28;20274;-85
2023/08/20 05:47:48;;;;;;;5.72;4.45;;;;;;;;;;5052963;28;20198;-84
2023/08/20 05:50:18;;;;;;;4.85;4.57;;;;;;;;;;5051973;28;20303;-85
2023/08/20 05:52:49;;;;;;;12.57;5.28;;;;;;;;;;5053686;28;20256;-84
2023/08/20 05:55:18;;;;;;;5.47;4.95;;;;;;;;;;5053823;28;20555;-85
2023/08/20 05:57:48;;;;;;;4.97;4.65;;;;;;;;;;5053126;28;20852;-84
2023/08/20 06:00:17;;;;;;;4.75;4.45;;;;;;;;;;5051772;28;20203;-84
2023/08/20 06:02:50;;;;;;;5.90;4.53;;;;;;;;;;5053535;28;20255;-85
2023/08/20 06:05:41;;;;;;;4.68;4.43;;;;;;;;;;5052559;28;20207;-85
2023/08/20 06:08:20;;;;;;;4.22;3.88;;;;;;;;;;5052551;28;20207;-84
2023/08/20 06:10:49;;;;;;;4.65;4.05;;;;;;;;;;5052814;28;20855;-85
2023/08/20 06:13:18;;;;;;;7.00;4.57;;;;;;;;;;5052655;28;20255;-85
2023/08/20 06:15:50;;;;;;;4.45;4.25;;;;;;;;;;5053022;28;20194;-85
2023/08/20 06:18:23;;;;;;;4.18;3.90;;;;;;;;;;5052084;28;20199;-86
2023/08/20 06:20:55;;;;;;;3.55;3.35;;;;;;;;;;5052785;28;20650;-84
2023/08/20 06:23:22;;;;;;;4.90;4.45;;;;;;;;;;5053041;28;20195;-85
2023/08/20 06:25:53;;;;;;;4.45;4.13;;;;;;;;;;5052388;28;20202;-85
2023/08/20 06:28:24;;;;;;;6.35;4.13;;;;;;;;;;5051922;28;20191;-83
2023/08/20 06:30:56;;;;;;;3.72;3.53;;;;;;;;;;5052803;28;20302;-84
2023/08/20 06:33:34;;;;;;;4.45;4.05;;;;;;;;;;5051812;28;20265;-84
2023/08/20 06:36:06;;;;;;;3.83;3.72;;;;;;;;;;5052527;28;20607;-84
2023/08/20 06:38:40;;;;;;;4.93;4.18;;;;;;;;;;5052403;28;20707;-87
2023/08/20 06:41:10;;;;;;;4.90;3.95;;;;;;;;;;5051684;28;20210;-85
2023/08/20 06:43:45;;;;;;;4.40;4.10;;;;;;;;;;5052462;28;20281;-84
2023/08/20 06:46:19;;;;;;;4.82;4.40;;;;;;;;;;5052636;28;20230;-84
2023/08/20 06:48:51;;;;;;;3.70;3.50;;;;;;;;;;5053485;28;20204;-84
2023/08/20 06:51:21;;;;;;;4.38;4.03;;;;;;;;;;5053624;28;20215;-85
2023/08/20 06:53:50;;;;;;;4.90;4.60;;;;;;;;;;5052692;28;20253;-85
2023/08/20 06:56:19;;;;;;;3.85;3.63;;;;;;;;;;5053173;28;20551;-85
2023/08/20 06:58:52;;;;;;;3.28;3.08;;;;;;;;;;5052174;28;20218;-84
2023/08/20 07:01:20;;;;;;;3.17;3.00;;;;;;;;;;5052732;28;20195;-84
2023/08/20 07:03:51;;;;;;;3.38;3.17;;;;;;;;;;5056345;28;20329;-84
2023/08/20 07:06:23;;;;;;;2.90;2.80;;;;;;;;;;5056664;28;20187;-84
2023/08/20 07:08:59;;;;;;;2.75;2.60;;;;;;;;;;5056485;28;20306;-84
2023/08/20 07:11:31;;;;;;;2.55;2.45;;;;;;;;;;5056874;28;20307;-85
2023/08/20 07:14:03;;;;;;;2.78;2.67;;;;;;;;;;5055450;28;20572;-84
2023/08/20 07:16:35;;;;;;;3.42;2.97;;;;;;;;;;5055845;28;20187;-84
2023/08/20 07:19:08;;;;;;;3.60;3.40;;;;;;;;;;5056551;28;20191;-86
2023/08/20 07:21:40;;;;;;;2.75;2.65;;;;;;;;;;5057447;28;20253;-84
2023/08/20 07:24:11;;;;;;;3.25;2.95;;;;;;;;;;5057121;28;20198;-86
2023/08/20 07:26:44;;;;;;;2.85;2.65;;;;;;;;;;5056914;28;20252;-87
2023/08/20 07:29:16;;;;;;;2.95;2.85;;;;;;;;;;5056502;28;20754;-84
2023/08/20 07:31:46;;;;;;;3.33;3.17;;;;;;;;;;5056217;28;20249;-86
2023/08/20 07:34:17;;;;;;;2.83;2.72;;;;;;;;;;5056775;28;20219;-85
2023/08/20 07:36:49;;;;;;;3.30;2.95;;;;;;;;;;5057006;28;20759;-85
2023/08/20 07:39:19;;;;;;;3.15;2.95;;;;;;;;;;5056478;28;20234;-86
2023/08/20 07:41:48;;;;;;;2.78;2.67;;;;;;;;;;5056324;28;20195;-86
2023/08/20 07:44:23;;;;;;;3.40;3.22;;;;;;;;;;5037548;28;20286;-84
2023/08/20 07:46:54;;;;;;;3.50;3.30;;;;;;;;;;5058390;28;20218;-83
2023/08/20 07:49:51;;;;;;;3.05;2.95;;;;;;;;;;5057674;28;20676;-88
2023/08/20 07:52:54;;;;;;;3.22;3.13;;;;;;;;;;5067603;28;20251;-86
2023/08/20 07:55:50;;;;;;;3.13;2.97;;;;;;;;;;5057847;28;20187;-84
2023/08/20 07:58:22;;;;;;;2.88;2.67;;;;;;;;;;5037504;28;20200;-85
2023/08/20 08:06:46;;;;;;;3.67;3.17;;;;;;;;;;5029964;28;20295;-85
2023/08/20 08:09:59;;;;;;;2.58;2.47;;;;;;;;;;5035954;28;20216;-85
2023/08/20 08:12:59;;;;;;;3.05;2.55;;;;;;;;;;5034591;28;20302;-85
2023/08/20 08:15:33;;;;;;;3.28;2.97;;;;;;;;;;5035661;28;20210;-85
2023/08/20 08:18:10;;;;;;;3.05;2.85;;;;;;;;;;5038978;28;20188;-84
2023/08/20 08:20:59;;;;;;;3.38;3.13;;;;;;;;;;5035591;28;20248;-85
2023/08/20 08:23:53;;;;;;;3.42;2.95;;;;;;;;;;5037949;28;20810;-85
2023/08/20 08:26:41;;;;;;;2.97;2.78;;;;;;;;;;5038492;28;20231;-85
2023/08/20 08:29:33;;;;;;;3.17;2.97;;;;;;;;;;5035771;28;20273;-86
2023/08/20 08:35:11;;;;;;;2.55;2.20;;;;;;;;;;5037810;28;20645;-84
2023/08/20 08:37:51;;;;;;;2.70;2.60;;;;;;;;;;5040691;28;20203;-85
2023/08/20 08:40:30;;;;;;;2.50;2.40;;;;;;;;;;5037857;28;20211;-86
2023/08/20 08:43:02;;;;;;;2.75;2.65;;;;;;;;;;5037957;28;20211;-85
2023/08/20 08:45:38;;;;;;;2.40;2.30;;;;;;;;;;5035469;28;20556;-86
2023/08/20 08:48:19;;;;;;;2.40;2.30;;;;;;;;;;5039208;28;20272;-85
2023/08/20 09:09:27;;;;;;;1.70;1.60;;;;;;;;;;4967044;28;20242;-87
2023/08/20 09:12:00;;;;;;;2.58;1.90;;;;;;;;;;4977494;28;20237;-85
2023/08/20 09:14:41;;;;;;;2.00;1.90;;;;;;;;;;4979405;28;20735;-86
2023/08/20 09:17:20;;;;;;;2.10;1.90;;;;;;;;;;4979346;28;20228;-87
2023/08/20 09:19:58;;;;;;;2.58;2.47;;;;;;;;;;4981251;28;20198;-85
2023/08/20 09:22:41;;;;;;;2.30;2.20;;;;;;;;;;4978723;28;20281;-86
2023/08/20 09:25:17;;;;;;;2.10;2.00;;;;;;;;;;4976361;28;20301;-88
2023/08/20 09:27:50;;;;;;;3.55;2.50;;;;;;;;;;4979328;28;20649;-86
2023/08/20 09:30:26;;;;;;;2.45;2.25;;;;;;;;;;4978697;28;20667;-87
2023/08/20 09:33:43;;;;;;;2.35;2.25;;;;;;;;;;4978850;28;20214;-85
2023/08/20 09:36:17;;;;;;;3.00;2.83;;;;;;;;;;4977160;28;20206;-84
2023/08/20 09:38:50;;;;;;;2.00;1.90;;;;;;;;;;4976508;28;20202;-86
2023/08/20 09:41:30;;;;;;;2.15;2.08;;;;;;;;;;4977715;28;20261;-86
2023/08/20 09:44:15;;;;;;;1.88;1.77;;;;;;;;;;4978048;28;20588;-87
2023/08/20 09:47:05;;;;;;;1.98;1.88;;;;;;;;;;4977829;28;20202;-86
2023/08/20 09:49:38;;;;;;;1.88;1.77;;;;;;;;;;4986100;28;20206;-85
2023/08/20 09:52:21;;;;;;;4.20;2.45;;;;;;;;;;4982245;28;20226;-86
2023/08/20 09:54:58;;;;;;;2.58;2.38;;;;;;;;;;4978893;28;20206;-84
2023/08/20 09:57:33;;;;;;;1.92;1.83;;;;;;;;;;4978287;28;20823;-86
2023/08/20 10:00:09;;;;;;;1.85;1.85;;;;;;;;;;4976611;28;20190;-86
2023/08/20 10:02:54;;;;;;;2.25;2.05;;;;;;;;;;4976993;28;20234;-84
2023/08/20 10:05:35;;;;;;;2.40;2.22;;;;;;;;;;4975925;28;20210;-86
2023/08/20 10:08:07;;;;;;;2.30;2.20;;;;;;;;;;4977584;28;20186;-86
2023/08/20 10:10:48;;;;;;;2.17;2.08;;;;;;;;;;4975938;28;20302;-86
2023/08/20 10:13:37;;;;;;;1.83;1.75;;;;;;;;;;4980563;28;20214;-87
2023/08/20 10:18:55;;;;;;;2.17;2.08;;;;;;;;;;4962015;28;20208;-86
2023/08/20 10:21:35;;;;;;;1.67;1.67;;;;;;;;;;4977349;28;20210;-86
2023/08/20 10:24:05;;;;;;;1.85;1.75;;;;;;;;;;4977243;28;20262;-86
2023/08/20 10:26:42;;;;;;;2.17;2.03;;;;;;;;;;4975537;28;20733;-85
2023/08/20 10:32:11;;;;;;;2.03;1.92;;;;;;;;;;4985983;23;20640;-84
2023/08/20 10:34:44;;;;;;;1.70;1.60;;;;;;;;;;4976608;28;20222;-86
2023/08/20 10:37:29;;;;;;;1.85;1.75;;;;;;;;;;4978719;28;20247;-86
2023/08/20 10:40:01;;;;;;;1.88;1.77;;;;;;;;;;4976965;28;20213;-85
2023/08/20 10:42:34;;;;;;;3.10;2.75;;;;;;;;;;4976778;28;20281;-86
2023/08/20 10:45:04;;;;;;;1.85;1.75;;;;;;;;;;4975210;28;20194;-85
2023/08/20 10:47:44;;;;;;;1.80;1.77;;;;;;;;;;4979119;28;20190;-85
2023/08/20 10:50:24;;;;;;;2.22;2.13;;;;;;;;;;4975604;28;20612;-85
2023/08/20 10:52:56;;;;;;;2.00;1.90;;;;;;;;;;4977617;28;20324;-86
2023/08/20 10:55:29;;;;;;;3.65;2.22;;;;;;;;;;4978478;28;20206;-86
2023/08/20 10:58:02;;;;;;;2.10;2.00;;;;;;;;;;4976178;28;20228;-86
2023/08/20 11:00:32;;;;;;;2.03;1.92;;;;;;;;;;4977417;28;20280;-85
2023/08/20 11:03:02;;;;;;;2.00;1.90;;;;;;;;;;4978059;28;20666;-85
2023/08/20 11:05:35;;;;;;;1.50;1.50;;;;;;;;;;4981667;28;20277;-85
2023/08/20 11:10:48;;;;;;;1.85;1.75;;;;;;;;;;5006604;23;20233;-86
2023/08/20 11:13:19;;;;;;;1.75;1.75;;;;;;;;;;4998457;28;20236;-87
2023/08/20 11:15:50;;;;;;;1.90;1.80;;;;;;;;;;4994868;28;20193;-86
2023/08/20 11:18:24;;;;;;;2.30;2.20;;;;;;;;;;4995271;28;20256;-85
2023/08/20 11:20:55;;;;;;;2.38;2.28;;;;;;;;;;4994790;28;20204;-86
2023/08/20 11:23:27;;;;;;;1.65;1.55;;;;;;;;;;4995711;28;20284;-88
2023/08/20 11:25:59;;;;;;;1.67;1.65;;;;;;;;;;4995560;28;20289;-88
2023/08/20 11:28:29;;;;;;;1.83;1.73;;;;;;;;;;4994360;28;20659;-85
2023/08/20 11:30:58;;;;;;;1.75;1.65;;;;;;;;;;4992700;28;20224;-86
2023/08/20 11:33:28;;;;;;;1.70;1.70;;;;;;;;;;4991921;28;20287;-86
2023/08/20 11:35:58;;;;;;;1.92;1.83;;;;;;;;;;4993580;28;20272;-86
2023/08/20 11:38:35;;;;;;;1.60;1.60;;;;;;;;;;4993713;28;20355;-88
2023/08/20 11:41:12;;;;;;;1.58;1.58;;;;;;;;;;4996845;28;20248;-86
2023/08/20 11:46:25;;;;;;;1.60;1.60;;;;;;;;;;4991109;28;20205;-87
2023/08/20 11:49:04;;;;;;;5.75;1.83;;;;;;;;;;4994056;28;20198;-85
2023/08/20 11:51:36;;;;;;;2.35;2.15;;;;;;;;;;4995985;28;20284;-86
2023/08/20 11:54:12;;;;;;;1.73;1.63;;;;;;;;;;4996281;28;20684;-86
2023/08/20 11:56:44;;;;;;;2.22;2.05;;;;;;;;;;4996737;28;20539;-87
2023/08/20 11:59:13;;;;;;;1.95;1.85;;;;;;;;;;4998108;28;20214;-87
2023/08/20 12:01:45;;;;;;;2.20;2.10;;;;;;;;;;4979000;28;20198;-86
2023/08/20 12:04:15;;;;;;;3.40;2.45;;;;;;;;;;4996124;28;20201;-86
2023/08/20 12:06:45;;;;;;;2.00;1.90;;;;;;;;;;4996161;28;20641;-87
2023/08/20 12:09:28;;;;;;;2.13;2.03;;;;;;;;;;4997001;28;20710;-85
2023/08/20 12:11:58;;;;;;;4.85;2.22;;;;;;;;;;4996168;28;20602;-87
2023/08/20 12:14:30;;;;;;;1.77;1.67;;;;;;;;;;4995442;28;20213;-88
2023/08/20 12:17:05;;;;;;;2.20;2.10;;;;;;;;;;4994375;28;20275;-86
2023/08/20 12:19:41;;;;;;;2.30;2.10;;;;;;;;;;4994417;28;20193;-86
2023/08/20 12:22:16;;;;;;;2.15;2.05;;;;;;;;;;4994051;28;20194;-87
2023/08/20 12:24:53;;;;;;;1.42;1.38;;;;;;;;;;4995417;28;20193;-86
2023/08/20 12:27:21;;;;;;;2.45;2.35;;;;;;;;;;4993701;28;20193;-88
2023/08/20 12:29:56;;;;;;;1.88;1.77;;;;;;;;;;4993881;28;20669;-88
2023/08/20 12:32:28;;;;;;;1.90;1.80;;;;;;;;;;4995896;28;20707;-85
2023/08/20 12:34:59;;;;;;;4.78;2.00;;;;;;;;;;4994303;28;20277;-87
2023/08/20 12:37:28;;;;;;;2.13;2.03;;;;;;;;;;4994496;28;20221;-87
2023/08/20 12:40:10;;;;;;;2.33;2.22;;;;;;;;;;4996289;28;20209;-87
2023/08/20 12:42:40;;;;;;;2.15;2.05;;;;;;;;;;4994374;28;20635;-87
2023/08/20 12:45:12;;;;;;;2.85;2.58;;;;;;;;;;4993763;28;20275;-85
2023/08/20 12:47:42;;;;;;;2.20;2.10;;;;;;;;;;4993294;28;20194;-86
2023/08/20 12:50:13;;;;;;;2.20;2.10;;;;;;;;;;4993910;28;20197;-85
2023/08/20 12:52:43;;;;;;;2.05;1.90;;;;;;;;;;4993956;28;20239;-88
2023/08/20 12:55:14;;;;;;;4.25;2.20;;;;;;;;;;4994017;28;20201;-87
2023/08/20 12:57:53;;;;;;;2.92;1.80;;;;;;;;;;4994407;28;20197;-86
2023/08/20 13:00:24;;;;;;;2.00;1.90;;;;;;;;;;5002133;28;20220;-84
2023/08/20 13:02:56;;;;;;;2.40;2.30;;;;;;;;;;5009122;28;20216;-83
2023/08/20 13:05:34;;;;;;;1.92;1.88;;;;;;;;;;4994698;28;20603;-85
2023/08/20 13:08:08;;;;;;;2.28;2.17;;;;;;;;;;4993427;28;20201;-85
2023/08/20 13:10:42;;;;;;;1.90;1.80;;;;;;;;;;4992942;28;20237;-85
2023/08/20 13:13:11;;;;;;;2.00;1.90;;;;;;;;;;4992415;28;20810;-85
2023/08/20 13:15:46;;;;;;;2.05;1.95;;;;;;;;;;4992620;28;20207;-85
2023/08/20 13:18:15;;;;;;;1.73;1.73;;;;;;;;;;4992140;28;20205;-85
2023/08/20 13:20:44;;;;;;;1.85;1.80;;;;;;;;;;4992974;28;20197;-85
2023/08/20 13:23:15;;;;;;;2.30;2.20;;;;;;;;;;4993686;28;20244;-85
2023/08/20 13:25:46;;;;;;;2.30;2.10;;;;;;;;;;5000045;28;20201;-86
2023/08/20 13:28:17;;;;;;;2.15;1.95;;;;;;;;;;4994406;28;20268;-86
2023/08/20 13:30:54;;;;;;;2.33;2.22;;;;;;;;;;4993723;28;20251;-84
2023/08/20 13:33:24;;;;;;;2.53;2.33;;;;;;;;;;4992358;28;20213;-84
2023/08/20 13:35:54;;;;;;;1.80;1.80;;;;;;;;;;5001412;28;20293;-85
2023/08/20 13:38:29;;;;;;;3.28;2.50;;;;;;;;;;5002555;28;20205;-87
2023/08/20 13:40:59;;;;;;;2.38;2.17;;;;;;;;;;4992242;28;20197;-85
2023/08/20 13:43:30;;;;;;;2.38;1.90;;;;;;;;;;4992125;28;20647;-86
2023/08/20 13:45:58;;;;;;;2.03;1.92;;;;;;;;;;4992231;28;20216;-86
2023/08/20 13:48:33;;;;;;;2.50;2.20;;;;;;;;;;4991937;28;20201;-87
2023/08/20 13:51:15;;;;;;;2.47;2.38;;;;;;;;;;4992260;28;20208;-87
2023/08/20 13:53:49;;;;;;;4.05;2.08;;;;;;;;;;4991674;28;20252;-87
2023/08/20 13:56:25;;;;;;;1.85;1.75;;;;;;;;;;4991546;28;20205;-86
2023/08/20 13:58:59;;;;;;;1.50;1.45;;;;;;;;;;4990824;28;20292;-84
2023/08/20 14:01:35;;;;;;;1.90;1.80;;;;;;;;;;4991576;28;20202;-90
2023/08/20 14:04:10;;;;;;;2.05;1.58;;;;;;;;;;4991075;28;20280;-85
2023/08/20 14:06:42;;;;;;;1.83;1.73;;;;;;;;;;4991197;28;20211;-86
2023/08/20 14:09:12;;;;;;;1.85;1.75;;;;;;;;;;4991074;28;20307;-88
2023/08/20 14:11:48;;;;;;;2.90;1.90;;;;;;;;;;4990538;28;20205;-85
2023/08/20 14:14:17;;;;;;;3.30;2.28;;;;;;;;;;4990818;28;20228;-85
2023/08/20 14:17:03;;;;;;;3.67;1.80;;;;;;;;;;4991015;28;20205;-86
2023/08/20 14:19:34;;;;;;;1.90;1.80;;;;;;;;;;4990892;28;20193;-85
2023/08/20 14:22:04;;;;;;;2.08;1.98;;;;;;;;;;4991863;28;20488;-86
2023/08/20 14:24:38;;;;;;;3.90;1.90;;;;;;;;;;4991078;28;20193;-85
2023/08/20 14:27:11;;;;;;;1.83;1.73;;;;;;;;;;4991692;28;20201;-86
2023/08/20 14:29:42;;;;;;;3.60;1.67;;;;;;;;;;4991864;28;20560;-87
2023/08/20 14:32:12;;;;;;;2.30;2.20;;;;;;;;;;4992334;28;20547;-86
2023/08/20 14:34:41;;;;;;;5.05;1.85;;;;;;;;;;4991345;28;20312;-86
2023/08/20 14:37:13;;;;;;;1.85;1.75;;;;;;;;;;4990850;28;20209;-86
2023/08/20 14:39:45;;;;;;;2.15;2.08;;;;;;;;;;4991316;28;20236;-85
2023/08/20 14:42:20;;;;;;;2.10;1.90;;;;;;;;;;4996664;28;20205;-86
2023/08/20 14:44:58;;;;;;;1.85;1.75;;;;;;;;;;4991212;28;20205;-85
2023/08/20 14:47:28;;;;;;;2.08;1.98;;;;;;;;;;4990289;28;20205;-86
2023/08/20 14:49:58;;;;;;;1.95;1.85;;;;;;;;;;4990192;28;20813;-83
2023/08/20 14:52:27;;;;;;;1.67;1.60;;;;;;;;;;4990318;28;20612;-85
2023/08/20 14:54:58;;;;;;;2.08;1.98;;;;;;;;;;4990730;28;20229;-86
2023/08/20 14:57:41;;;;;;;1.90;1.80;;;;;;;;;;4990163;28;20201;-85
2023/08/20 15:00:16;;;;;;;2.13;2.03;;;;;;;;;;4989611;28;20201;-85
2023/08/20 15:02:47;;;;;;;2.45;1.88;;;;;;;;;;4990575;28;20256;-86
2023/08/20 15:05:16;;;;;;;1.80;1.70;;;;;;;;;;4990571;28;20225;-85
2023/08/20 15:07:43;;;;;;;1.90;1.77;;;;;;;;;;4990151;28;20608;-86
2023/08/20 15:10:12;;;;;;;1.70;1.60;;;;;;;;;;4989877;28;20257;-86
2023/08/20 15:12:47;;;;;;;1.55;1.55;;;;;;;;;;4990569;28;20288;-85
2023/08/20 15:15:17;;;;;;;1.80;1.70;;;;;;;;;;4990392;28;20221;-84
2023/08/20 15:17:50;;;;;;;2.30;2.17;;;;;;;;;;4990801;28;20560;-85
2023/08/20 15:20:18;;;;;;;2.00;1.90;;;;;;;;;;4990352;28;20205;-88
2023/08/20 15:22:52;;;;;;;1.90;1.80;;;;;;;;;;4992319;28;20205;-86
2023/08/20 15:25:24;;;;;;;1.90;1.80;;;;;;;;;;4994478;28;20627;-84
2023/08/20 15:28:04;;;;;;;2.00;1.90;;;;;;;;;;4995574;28;20220;-88
2023/08/20 15:30:36;;;;;;;1.52;1.52;;;;;;;;;;4994583;28;20674;-85
2023/08/20 15:33:09;;;;;;;1.70;1.60;;;;;;;;;;4993999;28;20194;-87
2023/08/20 15:35:40;;;;;;;2.95;1.60;;;;;;;;;;4994905;28;20220;-86
2023/08/20 15:38:27;;;;;;;2.15;2.05;;;;;;;;;;4994408;28;20197;-85
2023/08/20 15:40:58;;;;;;;1.48;1.48;;;;;;;;;;4994146;28;20653;-85
2023/08/20 15:43:30;;;;;;;2.15;1.95;;;;;;;;;;4994204;28;20201;-85
2023/08/20 15:46:02;;;;;;;2.03;1.92;;;;;;;;;;4994449;28;20193;-87
2023/08/20 15:48:34;;;;;;;2.33;2.22;;;;;;;;;;4993712;28;20562;-84
2023/08/20 15:51:06;;;;;;;1.45;1.45;;;;;;;;;;4993772;28;20201;-87
2023/08/20 15:53:37;;;;;;;1.75;1.65;;;;;;;;;;4993888;28;20632;-86
2023/08/20 15:56:06;;;;;;;1.80;1.70;;;;;;;;;;4993907;28;20596;-85